»·PEaware :: WAT202 KRNO-KLAS

WAT202 :: KRNO-KLAS

FLIGHT INFORMATION

Flight Status: Arrived
Operator:
Walker Air Transport
More flights by this operator :: More flights under this callsign
Pilot: Nick L. (7253)
Aircraft: BOEING 737-800
(B738)
More flights by this aircraft type
Origin: KRNO Reno/Tahoe Intl
United States
Destination: KLAS Harry Reid Intl
United States
More flights between these airports :: More routes between these airports
Route: ZEFFR6 PESKE BASIC COKTL1
File this flight plan on PilotEdge
Remarks: RMK / SIMBRIEF
Altitude:
(Current/Filed)
35,000ft
Speed:
(Current/Filed)
452kts
Departed: 02-Mar-21 02:12 PM
Arrived: 02-Mar-21 03:09 PM
Distance/Time
Traveled:
300nm/0:57
Distance/Time
To Go:
Arrived

Flight Plot

Page will automatically refresh every two minutes.

Flight plan parsing failed; only flown route is shown


Map Options




Map Legend


Flown Route
Filed Route
Departure Airport
Arrival Airport
Navaid (VOR, NDB)
Fix

Horizontal Profiles

Position Reports

Time Latitude Longitude Heading Altitude Ground
Speed
02-Mar-21 13:43 39.504866 -119.772260 283 4417ft 0kts
02-Mar-21 13:44 39.504866 -119.772260 283 4417ft 0kts
02-Mar-21 13:45 39.504866 -119.772260 283 4417ft 0kts
02-Mar-21 13:46 39.504866 -119.772260 283 4417ft 0kts
02-Mar-21 13:47 39.504866 -119.772260 283 4417ft 0kts
02-Mar-21 13:48 39.504866 -119.772260 283 4417ft 0kts
02-Mar-21 13:49 39.504866 -119.772260 283 4417ft 0kts
02-Mar-21 13:50 39.504866 -119.772260 283 4417ft 0kts
02-Mar-21 13:51 39.504866 -119.772260 283 4417ft 0kts
02-Mar-21 13:52 39.504866 -119.772260 283 4417ft 0kts
02-Mar-21 13:53 39.504866 -119.772260 283 4417ft 0kts
02-Mar-21 13:54 39.504866 -119.772260 283 4417ft 0kts
02-Mar-21 13:55 39.504866 -119.772260 283 4417ft 0kts
02-Mar-21 13:56 39.504866 -119.772260 283 4417ft 0kts
02-Mar-21 13:57 39.504866 -119.772260 283 4417ft 0kts
02-Mar-21 13:58 39.504866 -119.772260 283 4417ft 0kts
02-Mar-21 13:59 39.504866 -119.772260 283 4417ft 0kts
02-Mar-21 14:00 39.504786 -119.771848 283 4417ft 2kts
02-Mar-21 14:01 39.504442 -119.771491 0 4417ft 1kts
02-Mar-21 14:02 39.504429 -119.771492 0 4417ft 0kts
02-Mar-21 14:03 39.504429 -119.771492 0 4417ft 0kts
02-Mar-21 14:04 39.504516 -119.771490 0 4417ft 0kts
02-Mar-21 14:05 39.504575 -119.771489 0 4417ft 0kts
02-Mar-21 14:06 39.504642 -119.771488 0 4417ft 0kts
02-Mar-21 14:07 39.506794 -119.771503 359 4418ft 12kts
02-Mar-21 14:08 39.510301 -119.771489 359 4420ft 12kts
02-Mar-21 14:09 39.512701 -119.771464 0 4422ft 5kts
02-Mar-21 14:10 39.513737 -119.769682 90 4422ft 6kts
02-Mar-21 14:11 39.500018 -119.769239 180 4412ft 147kts
02-Mar-21 14:12 39.447475 -119.766647 184 6254ft 217kts
02-Mar-21 14:13 39.377409 -119.769696 180 8555ft 274kts
02-Mar-21 14:14 39.302010 -119.745073 138 10703ft 329kts
02-Mar-21 14:15 39.236879 -119.650113 133 13010ft 365kts
02-Mar-21 14:16 39.168094 -119.550898 134 15705ft 379kts
02-Mar-21 14:17 39.092405 -119.454010 138 18121ft 391kts
02-Mar-21 14:18 39.013597 -119.355367 137 20364ft 402kts
02-Mar-21 14:19 38.932258 -119.255170 139 22477ft 409kts
02-Mar-21 14:20 38.849473 -119.153342 139 24381ft 416kts
02-Mar-21 14:21 38.765966 -119.048740 136 26023ft 427kts
02-Mar-21 14:22 38.684867 -118.934622 136 27360ft 441kts
02-Mar-21 14:23 38.602683 -118.815081 134 28579ft 454kts
02-Mar-21 14:24 38.523904 -118.689032 132 30251ft 454kts
02-Mar-21 14:25 38.445117 -118.565091 135 31833ft 449kts
02-Mar-21 14:26 38.361180 -118.449687 139 33302ft 443kts
02-Mar-21 14:27 38.274093 -118.339743 141 34668ft 438kts
02-Mar-21 14:28 38.186159 -118.230645 139 35047ft 450kts
02-Mar-21 14:29 38.100849 -118.115284 138 35045ft 449kts
02-Mar-21 14:30 38.016010 -117.999253 138 35057ft 450kts
02-Mar-21 14:31 37.931111 -117.882968 138 35058ft 450kts
02-Mar-21 14:32 37.846412 -117.767070 138 35063ft 450kts
02-Mar-21 14:33 37.761698 -117.651482 138 35081ft 449kts
02-Mar-21 14:34 37.676660 -117.535855 138 35091ft 449kts
02-Mar-21 14:35 37.591728 -117.420780 138 35091ft 449kts
02-Mar-21 14:36 37.506481 -117.305716 138 35091ft 449kts
02-Mar-21 14:37 37.421385 -117.191287 138 35091ft 449kts
02-Mar-21 14:38 37.332147 -117.083487 147 35094ft 442kts
02-Mar-21 14:39 37.233578 -116.992244 150 35091ft 442kts
02-Mar-21 14:40 37.133156 -116.903975 151 35091ft 442kts
02-Mar-21 14:41 37.031897 -116.816397 151 35088ft 441kts
02-Mar-21 14:42 36.932300 -116.730723 151 35074ft 433kts
02-Mar-21 14:43 36.832598 -116.645305 151 35064ft 436kts
02-Mar-21 14:44 36.733728 -116.560817 151 32536ft 434kts
02-Mar-21 14:45 36.639781 -116.469034 142 29936ft 426kts
02-Mar-21 14:46 36.560529 -116.362266 136 27536ft 413kts
02-Mar-21 14:47 36.486166 -116.257702 136 25238ft 397kts
02-Mar-21 14:48 36.414313 -116.158185 135 23000ft 382kts
02-Mar-21 14:49 36.346991 -116.059488 132 20799ft 370kts
02-Mar-21 14:50 36.284289 -115.964261 132 19486ft 335kts
02-Mar-21 14:51 36.227764 -115.879186 131 19069ft 316kts
02-Mar-21 14:52 36.172233 -115.796938 134 18328ft 305kts
02-Mar-21 14:53 36.130078 -115.707577 106 16814ft 308kts
02-Mar-21 14:54 36.111559 -115.605276 105 15385ft 301kts
02-Mar-21 14:55 36.092860 -115.505391 105 13975ft 296kts
02-Mar-21 14:56 36.074375 -115.407312 104 12584ft 290kts
02-Mar-21 14:57 36.056155 -115.311091 105 11220ft 285kts
02-Mar-21 14:58 36.038151 -115.216437 104 10023ft 274kts
02-Mar-21 14:59 36.021016 -115.127027 104 8859ft 267kts
02-Mar-21 15:00 36.005428 -115.045780 103 8229ft 218kts
02-Mar-21 15:01 35.998787 -114.976547 90 7819ft 194kts
02-Mar-21 15:02 36.013413 -114.914827 38 6253ft 191kts
02-Mar-21 15:03 36.062056 -114.917874 318 5382ft 192kts
02-Mar-21 15:04 36.073868 -114.977892 271 4408ft 169kts
02-Mar-21 15:05 36.073751 -115.035896 271 3498ft 166kts
02-Mar-21 15:06 36.073671 -115.092420 271 2809ft 164kts
02-Mar-21 15:07 36.073690 -115.144703 269 2188ft 92kts
02-Mar-21 15:08 36.074796 -115.155234 299 2188ft 0kts
02-Mar-21 15:09 36.074877 -115.155412 299 2188ft 6kts
02-Mar-21 15:10 36.077413 -115.158228 356 2188ft 10kts
02-Mar-21 15:11 36.078022 -115.155177 89 2188ft 16kts
02-Mar-21 15:12 36.079810 -115.148987 50 2188ft 25kts
02-Mar-21 15:13 36.080239 -115.147326 58 2188ft 0kts
02-Mar-21 15:14 36.080239 -115.147326 58 2188ft 0kts
02-Mar-21 15:15 36.080239 -115.147326 58 2188ft 0kts
02-Mar-21 15:16 36.080239 -115.147326 58 2188ft 0kts
02-Mar-21 15:17 36.080239 -115.147326 58 2188ft 0kts
02-Mar-21 15:18 36.080239 -115.147326 58 2188ft 0kts

Navigation Log

Ident Type
Flight plan parsing failed, navigation log unavailable